sensor_id;sensor_type;location;lat;lon;timestamp;pressure;altitude;pressure_sealevel;temperature;humidity
68855;BME280;69984;-43.570;172.580;2023-08-17T00:02:20;101292.09;;;13.52;56.42
68855;BME280;69984;-43.570;172.580;2023-08-17T00:04:47;101287.53;;;13.54;56.47
68855;BME280;69984;-43.570;172.580;2023-08-17T00:07:14;101286.38;;;13.57;56.36
68855;BME280;69984;-43.570;172.580;2023-08-17T00:09:42;101283.00;;;14.08;54.58
68855;BME280;69984;-43.570;172.580;2023-08-17T00:12:09;101279.34;;;13.83;55.49
68855;BME280;69984;-43.570;172.580;2023-08-17T00:14:36;101282.22;;;14.07;54.94
68855;BME280;69984;-43.570;172.580;2023-08-17T00:17:03;101275.84;;;13.57;55.10
68855;BME280;69984;-43.570;172.580;2023-08-17T00:19:30;101267.22;;;14.33;53.24
68855;BME280;69984;-43.570;172.580;2023-08-17T00:21:58;101268.75;;;14.18;53.48
68855;BME280;69984;-43.570;172.580;2023-08-17T00:24:25;101273.22;;;13.74;56.36
68855;BME280;69984;-43.570;172.580;2023-08-17T00:26:52;101261.47;;;14.12;54.13
68855;BME280;69984;-43.570;172.580;2023-08-17T00:29:19;101264.84;;;13.79;54.83
68855;BME280;69984;-43.570;172.580;2023-08-17T00:31:47;101260.28;;;14.07;54.35
68855;BME280;69984;-43.570;172.580;2023-08-17T00:34:14;101256.22;;;13.33;54.15
68855;BME280;69984;-43.570;172.580;2023-08-17T00:36:41;101252.31;;;13.98;55.17
68855;BME280;69984;-43.570;172.580;2023-08-17T00:39:08;101250.41;;;14.09;54.21
68855;BME280;69984;-43.570;172.580;2023-08-17T00:41:35;101253.72;;;13.67;55.29
68855;BME280;69984;-43.570;172.580;2023-08-17T00:44:02;101258.97;;;14.28;53.69
68855;BME280;69984;-43.570;172.580;2023-08-17T00:46:30;101262.47;;;14.63;53.43
68855;BME280;69984;-43.570;172.580;2023-08-17T00:48:57;101254.88;;;15.10;50.77
68855;BME280;69984;-43.570;172.580;2023-08-17T00:51:26;101244.28;;;14.52;53.02
68855;BME280;69984;-43.570;172.580;2023-08-17T00:53:54;101251.22;;;14.61;52.89
68855;BME280;69984;-43.570;172.580;2023-08-17T00:56:22;101250.13;;;14.71;51.87
68855;BME280;69984;-43.570;172.580;2023-08-17T00:58:50;101248.44;;;15.04;51.37
68855;BME280;69984;-43.570;172.580;2023-08-17T01:01:17;101251.84;;;14.88;50.59
68855;BME280;69984;-43.570;172.580;2023-08-17T01:03:45;101252.22;;;14.93;50.63
68855;BME280;69984;-43.570;172.580;2023-08-17T01:06:12;101233.50;;;15.45;48.50
68855;BME280;69984;-43.570;172.580;2023-08-17T01:08:41;101237.19;;;15.92;48.18
68855;BME280;69984;-43.570;172.580;2023-08-17T01:14:21;101232.56;;;14.96;50.18
68855;BME280;69984;-43.570;172.580;2023-08-17T01:17:00;101225.06;;;15.41;49.47
68855;BME280;69984;-43.570;172.580;2023-08-17T01:19:30;101229.41;;;15.59;48.50
68855;BME280;69984;-43.570;172.580;2023-08-17T01:22:05;101228.88;;;15.47;48.24
68855;BME280;69984;-43.570;172.580;2023-08-17T01:24:35;101230.63;;;14.64;49.85
68855;BME280;69984;-43.570;172.580;2023-08-17T01:27:02;101227.31;;;14.54;51.21
68855;BME280;69984;-43.570;172.580;2023-08-17T01:29:29;101213.56;;;14.17;50.40
68855;BME280;69984;-43.570;172.580;2023-08-17T01:32:45;101219.19;;;14.47;51.07
68855;BME280;69984;-43.570;172.580;2023-08-17T01:35:37;101210.56;;;15.37;49.39
68855;BME280;69984;-43.570;172.580;2023-08-17T01:38:06;101208.88;;;15.12;48.21
68855;BME280;69984;-43.570;172.580;2023-08-17T01:40:34;101205.47;;;14.78;47.47
68855;BME280;69984;-43.570;172.580;2023-08-17T01:43:02;101210.72;;;14.70;47.99
68855;BME280;69984;-43.570;172.580;2023-08-17T01:45:30;101197.66;;;15.34;47.05
68855;BME280;69984;-43.570;172.580;2023-08-17T01:47:57;101192.41;;;15.67;45.91
68855;BME280;69984;-43.570;172.580;2023-08-17T01:50:24;101182.84;;;15.66;47.71
68855;BME280;69984;-43.570;172.580;2023-08-17T01:52:51;101188.91;;;16.07;44.25
68855;BME280;69984;-43.570;172.580;2023-08-17T01:55:21;101188.44;;;15.46;46.23
68855;BME280;69984;-43.570;172.580;2023-08-17T01:57:53;101192.25;;;14.78;49.27
68855;BME280;69984;-43.570;172.580;2023-08-17T02:00:20;101194.53;;;15.31;46.79
68855;BME280;69984;-43.570;172.580;2023-08-17T02:02:47;101196.53;;;15.37;45.82
68855;BME280;69984;-43.570;172.580;2023-08-17T02:05:14;101189.88;;;16.14;44.06
68855;BME280;69984;-43.570;172.580;2023-08-17T02:07:41;101181.66;;;16.01;45.13
68855;BME280;69984;-43.570;172.580;2023-08-17T02:10:08;101186.97;;;16.86;44.69
68855;BME280;69984;-43.570;172.580;2023-08-17T02:12:35;101182.91;;;16.68;45.13
68855;BME280;69984;-43.570;172.580;2023-08-17T02:15:03;101179.34;;;17.37;43.12
68855;BME280;69984;-43.570;172.580;2023-08-17T02:17:30;101180.97;;;17.98;42.51
68855;BME280;69984;-43.570;172.580;2023-08-17T02:19:57;101183.31;;;17.41;42.35
68855;BME280;69984;-43.570;172.580;2023-08-17T02:22:24;101177.50;;;17.83;42.29
68855;BME280;69984;-43.570;172.580;2023-08-17T02:24:51;101176.69;;;17.37;42.20
68855;BME280;69984;-43.570;172.580;2023-08-17T02:27:18;101172.88;;;17.77;42.00
68855;BME280;69984;-43.570;172.580;2023-08-17T02:29:45;101177.50;;;18.27;40.92
68855;BME280;69984;-43.570;172.580;2023-08-17T02:32:12;101178.13;;;17.85;41.42
68855;BME280;69984;-43.570;172.580;2023-08-17T02:34:39;101178.09;;;16.71;42.64
68855;BME280;69984;-43.570;172.580;2023-08-17T02:37:06;101180.88;;;17.31;42.03
68855;BME280;69984;-43.570;172.580;2023-08-17T02:39:33;101177.31;;;18.14;40.75
68855;BME280;69984;-43.570;172.580;2023-08-17T02:42:00;101174.84;;;17.83;40.42
68855;BME280;69984;-43.570;172.580;2023-08-17T02:44:27;101179.34;;;17.97;40.82
68855;BME280;69984;-43.570;172.580;2023-08-17T02:46:55;101174.03;;;17.97;41.28
68855;BME280;69984;-43.570;172.580;2023-08-17T02:49:22;101174.94;;;18.33;40.59
68855;BME280;69984;-43.570;172.580;2023-08-17T02:51:49;101178.03;;;17.93;40.39
68855;BME280;69984;-43.570;172.580;2023-08-17T02:54:16;101182.34;;;17.57;40.67
68855;BME280;69984;-43.570;172.580;2023-08-17T02:56:43;101171.19;;;17.98;39.72
68855;BME280;69984;-43.570;172.580;2023-08-17T02:59:10;101176.59;;;17.90;40.73
68855;BME280;69984;-43.570;172.580;2023-08-17T03:01:37;101175.97;;;18.18;40.83
68855;BME280;69984;-43.570;172.580;2023-08-17T03:04:04;101176.88;;;18.39;39.50
68855;BME280;69984;-43.570;172.580;2023-08-17T03:06:31;101167.38;;;17.64;41.69
68855;BME280;69984;-43.570;172.580;2023-08-17T03:08:59;101168.81;;;17.06;42.07
68855;BME280;69984;-43.570;172.580;2023-08-17T03:11:26;101174.13;;;17.06;41.61
68855;BME280;69984;-43.570;172.580;2023-08-17T03:13:53;101162.13;;;17.56;39.37
68855;BME280;69984;-43.570;172.580;2023-08-17T03:16:26;101171.03;;;18.29;37.91
68855;BME280;69984;-43.570;172.580;2023-08-17T03:18:54;101172.28;;;18.48;39.07
68855;BME280;69984;-43.570;172.580;2023-08-17T03:21:21;101170.75;;;17.58;38.71
68855;BME280;69984;-43.570;172.580;2023-08-17T03:23:48;101159.69;;;17.09;39.62
68855;BME280;69984;-43.570;172.580;2023-08-17T03:26:15;101158.34;;;16.82;39.79
68855;BME280;69984;-43.570;172.580;2023-08-17T03:28:45;101160.97;;;17.58;38.03
68855;BME280;69984;-43.570;172.580;2023-08-17T03:31:12;101162.66;;;16.44;41.67
68855;BME280;69984;-43.570;172.580;2023-08-17T03:33:39;101166.09;;;17.37;40.09
68855;BME280;69984;-43.570;172.580;2023-08-17T03:36:07;101158.38;;;17.73;40.77
68855;BME280;69984;-43.570;172.580;2023-08-17T03:38:34;101159.94;;;16.21;43.79
68855;BME280;69984;-43.570;172.580;2023-08-17T03:41:01;101159.13;;;18.11;40.96
68855;BME280;69984;-43.570;172.580;2023-08-17T03:43:29;101153.72;;;17.89;41.90
68855;BME280;69984;-43.570;172.580;2023-08-17T03:45:56;101151.91;;;18.05;40.16
68855;BME280;69984;-43.570;172.580;2023-08-17T03:48:23;101155.09;;;17.48;40.09
68855;BME280;69984;-43.570;172.580;2023-08-17T03:50:56;101157.47;;;18.39;39.29
68855;BME280;69984;-43.570;172.580;2023-08-17T03:53:23;101164.34;;;18.19;38.51
68855;BME280;69984;-43.570;172.580;2023-08-17T03:55:51;101158.13;;;17.97;38.84
68855;BME280;69984;-43.570;172.580;2023-08-17T03:58:18;101152.72;;;17.90;39.22
68855;BME280;69984;-43.570;172.580;2023-08-17T04:00:54;101152.72;;;16.85;41.64
68855;BME280;69984;-43.570;172.580;2023-08-17T04:03:22;101156.03;;;17.32;43.04
68855;BME280;69984;-43.570;172.580;2023-08-17T04:05:49;101146.38;;;17.39;41.93
68855;BME280;69984;-43.570;172.580;2023-08-17T04:08:16;101155.53;;;16.44;44.26
68855;BME280;69984;-43.570;172.580;2023-08-17T04:10:43;101157.00;;;16.47;44.07
68855;BME280;69984;-43.570;172.580;2023-08-17T04:13:10;101150.56;;;17.34;41.63
68855;BME280;69984;-43.570;172.580;2023-08-17T04:15:37;101144.91;;;17.74;40.53
68855;BME280;69984;-43.570;172.580;2023-08-17T04:18:04;101144.13;;;18.18;38.56
68855;BME280;69984;-43.570;172.580;2023-08-17T04:20:31;101150.72;;;18.22;39.01
68855;BME280;69984;-43.570;172.580;2023-08-17T04:22:58;101149.28;;;17.67;41.11
68855;BME280;69984;-43.570;172.580;2023-08-17T04:25:25;101146.22;;;18.08;40.37
68855;BME280;69984;-43.570;172.580;2023-08-17T04:27:52;101146.81;;;16.75;41.99
68855;BME280;69984;-43.570;172.580;2023-08-17T04:30:19;101142.81;;;16.40;42.78
68855;BME280;69984;-43.570;172.580;2023-08-17T04:32:46;101146.69;;;15.58;44.46
68855;BME280;69984;-43.570;172.580;2023-08-17T04:35:19;101155.59;;;14.59;46.57
68855;BME280;69984;-43.570;172.580;2023-08-17T04:37:46;101148.00;;;14.22;47.53
68855;BME280;69984;-43.570;172.580;2023-08-17T04:40:14;101149.28;;;14.35;47.65
68855;BME280;69984;-43.570;172.580;2023-08-17T04:42:41;101148.81;;;14.22;48.51
68855;BME280;69984;-43.570;172.580;2023-08-17T04:45:09;101152.66;;;14.28;48.15
68855;BME280;69984;-43.570;172.580;2023-08-17T04:47:36;101142.41;;;13.91;48.72
68855;BME280;69984;-43.570;172.580;2023-08-17T04:50:03;101139.25;;;13.87;48.83
68855;BME280;69984;-43.570;172.580;2023-08-17T04:52:30;101140.84;;;13.80;49.24
68855;BME280;69984;-43.570;172.580;2023-08-17T04:54:57;101147.97;;;13.62;50.92
68855;BME280;69984;-43.570;172.580;2023-08-17T04:57:25;101147.66;;;13.65;50.75
68855;BME280;69984;-43.570;172.580;2023-08-17T04:59:53;101141.31;;;13.76;50.29
68855;BME280;69984;-43.570;172.580;2023-08-17T05:02:20;101152.63;;;13.94;50.03
68855;BME280;69984;-43.570;172.580;2023-08-17T05:04:47;101149.84;;;13.95;49.13
68855;BME280;69984;-43.570;172.580;2023-08-17T05:07:14;101150.63;;;15.30;46.54
68855;BME280;69984;-43.570;172.580;2023-08-17T05:09:41;101156.63;;;16.66;43.99
68855;BME280;69984;-43.570;172.580;2023-08-17T05:12:08;101151.22;;;17.88;42.14
68855;BME280;69984;-43.570;172.580;2023-08-17T05:14:35;101145.94;;;18.03;41.37
68855;BME280;69984;-43.570;172.580;2023-08-17T05:17:03;101159.28;;;18.68;38.72
68855;BME280;69984;-43.570;172.580;2023-08-17T05:19:30;101166.44;;;18.53;38.57
68855;BME280;69984;-43.570;172.580;2023-08-17T05:21:57;101158.63;;;19.02;37.53
68855;BME280;69984;-43.570;172.580;2023-08-17T05:24:24;101155.59;;;19.05;37.16
68855;BME280;69984;-43.570;172.580;2023-08-17T05:26:51;101169.94;;;18.89;36.73
68855;BME280;69984;-43.570;172.580;2023-08-17T05:29:19;101161.56;;;19.07;36.18
68855;BME280;69984;-43.570;172.580;2023-08-17T05:31:46;101176.34;;;19.16;35.87
68855;BME280;69984;-43.570;172.580;2023-08-17T05:34:13;101171.19;;;18.93;37.38
68855;BME280;69984;-43.570;172.580;2023-08-17T05:36:40;101167.69;;;17.98;38.87
68855;BME280;69984;-43.570;172.580;2023-08-17T05:39:07;101173.44;;;16.34;42.08
68855;BME280;69984;-43.570;172.580;2023-08-17T05:41:35;101169.78;;;15.48;44.01
68855;BME280;69984;-43.570;172.580;2023-08-17T05:44:02;101174.50;;;14.96;45.28
68855;BME280;69984;-43.570;172.580;2023-08-17T05:46:30;101173.06;;;14.52;46.54
68855;BME280;69984;-43.570;172.580;2023-08-17T05:48:57;101175.81;;;14.16;47.58
68855;BME280;69984;-43.570;172.580;2023-08-17T05:51:25;101182.06;;;14.15;47.42
68855;BME280;69984;-43.570;172.580;2023-08-17T05:53:52;101182.44;;;13.94;48.81
68855;BME280;69984;-43.570;172.580;2023-08-17T05:56:19;101177.31;;;13.67;49.10
68855;BME280;69984;-43.570;172.580;2023-08-17T05:58:46;101185.13;;;13.06;50.99
68855;BME280;69984;-43.570;172.580;2023-08-17T06:01:14;101187.03;;;12.69;51.89
68855;BME280;69984;-43.570;172.580;2023-08-17T06:03:41;101188.75;;;11.77;54.88
68855;BME280;69984;-43.570;172.580;2023-08-17T06:06:09;101187.63;;;11.70;55.10
68855;BME280;69984;-43.570;172.580;2023-08-17T06:08:36;101186.69;;;11.51;55.56
68855;BME280;69984;-43.570;172.580;2023-08-17T06:11:03;101196.34;;;11.32;56.25
68855;BME280;69984;-43.570;172.580;2023-08-17T06:13:31;101191.75;;;11.05;57.43
68855;BME280;69984;-43.570;172.580;2023-08-17T06:15:58;101196.22;;;11.05;57.43
68855;BME280;69984;-43.570;172.580;2023-08-17T06:18:25;101207.59;;;10.84;58.46
68855;BME280;69984;-43.570;172.580;2023-08-17T06:20:52;101205.91;;;10.74;59.38
68855;BME280;69984;-43.570;172.580;2023-08-17T06:23:20;101200.56;;;10.75;58.75
68855;BME280;69984;-43.570;172.580;2023-08-17T06:25:47;101203.47;;;10.42;59.38
68855;BME280;69984;-43.570;172.580;2023-08-17T06:28:14;101201.59;;;10.53;59.65
68855;BME280;69984;-43.570;172.580;2023-08-17T06:30:41;101205.16;;;10.52;60.11
68855;BME280;69984;-43.570;172.580;2023-08-17T06:33:08;101198.75;;;10.36;60.31
68855;BME280;69984;-43.570;172.580;2023-08-17T06:35:35;101198.88;;;10.14;60.85
68855;BME280;69984;-43.570;172.580;2023-08-17T06:38:02;101203.13;;;10.26;60.65
68855;BME280;69984;-43.570;172.580;2023-08-17T06:40:31;101202.06;;;10.38;60.42
68855;BME280;69984;-43.570;172.580;2023-08-17T06:42:58;101209.31;;;10.25;61.12
68855;BME280;69984;-43.570;172.580;2023-08-17T06:45:25;101201.41;;;10.15;61.37
68855;BME280;69984;-43.570;172.580;2023-08-17T06:47:52;101205.25;;;9.90;62.03
68855;BME280;69984;-43.570;172.580;2023-08-17T06:50:19;101215.94;;;9.46;63.95
68855;BME280;69984;-43.570;172.580;2023-08-17T06:52:47;101213.50;;;9.33;64.08
68855;BME280;69984;-43.570;172.580;2023-08-17T06:55:14;101213.63;;;9.32;65.09
68855;BME280;69984;-43.570;172.580;2023-08-17T06:57:42;101210.25;;;8.98;67.20
68855;BME280;69984;-43.570;172.580;2023-08-17T07:00:09;101218.06;;;9.20;67.03
68855;BME280;69984;-43.570;172.580;2023-08-17T07:02:38;101222.53;;;9.29;67.04
68855;BME280;69984;-43.570;172.580;2023-08-17T07:05:05;101226.56;;;9.33;66.12
68855;BME280;69984;-43.570;172.580;2023-08-17T07:07:32;101230.84;;;9.34;66.12
68855;BME280;69984;-43.570;172.580;2023-08-17T07:09:59;101233.84;;;8.76;67.33
68855;BME280;69984;-43.570;172.580;2023-08-17T07:12:27;101233.94;;;8.85;67.42
68855;BME280;69984;-43.570;172.580;2023-08-17T07:14:54;101234.69;;;8.43;66.46
68855;BME280;69984;-43.570;172.580;2023-08-17T07:17:21;101226.72;;;8.33;68.20
68855;BME280;69984;-43.570;172.580;2023-08-17T07:19:48;101232.41;;;8.49;67.11
68855;BME280;69984;-43.570;172.580;2023-08-17T07:22:16;101232.91;;;8.43;66.72
68855;BME280;69984;-43.570;172.580;2023-08-17T07:24:43;101232.06;;;8.43;67.00
68855;BME280;69984;-43.570;172.580;2023-08-17T07:27:10;101237.69;;;8.03;68.41
68855;BME280;69984;-43.570;172.580;2023-08-17T07:29:37;101241.84;;;7.95;68.97
68855;BME280;69984;-43.570;172.580;2023-08-17T07:32:04;101239.84;;;8.21;68.05
68855;BME280;69984;-43.570;172.580;2023-08-17T07:34:31;101244.78;;;8.47;66.96
68855;BME280;69984;-43.570;172.580;2023-08-17T07:36:59;101245.81;;;8.23;67.08
68855;BME280;69984;-43.570;172.580;2023-08-17T07:39:26;101243.19;;;8.23;67.75
68855;BME280;69984;-43.570;172.580;2023-08-17T07:41:53;101241.72;;;8.08;67.58
68855;BME280;69984;-43.570;172.580;2023-08-17T07:44:20;101245.63;;;8.13;68.45
68855;BME280;69984;-43.570;172.580;2023-08-17T07:46:47;101245.50;;;8.03;68.01
68855;BME280;69984;-43.570;172.580;2023-08-17T07:49:14;101245.19;;;8.08;67.89
68855;BME280;69984;-43.570;172.580;2023-08-17T07:51:41;101241.78;;;8.41;67.12
68855;BME280;69984;-43.570;172.580;2023-08-17T07:54:08;101244.41;;;8.52;66.83
68855;BME280;69984;-43.570;172.580;2023-08-17T07:56:35;101247.38;;;8.36;66.80
68855;BME280;69984;-43.570;172.580;2023-08-17T07:59:02;101244.53;;;8.39;67.20
68855;BME280;69984;-43.570;172.580;2023-08-17T08:01:29;101248.56;;;8.32;67.18
68855;BME280;69984;-43.570;172.580;2023-08-17T08:03:56;101247.97;;;8.40;66.81
68855;BME280;69984;-43.570;172.580;2023-08-17T08:06:24;101242.94;;;8.15;66.92
68855;BME280;69984;-43.570;172.580;2023-08-17T08:08:51;101249.53;;;7.96;67.77
68855;BME280;69984;-43.570;172.580;2023-08-17T08:11:18;101241.69;;;7.96;67.75
68855;BME280;69984;-43.570;172.580;2023-08-17T08:13:45;101241.91;;;7.82;69.24
68855;BME280;69984;-43.570;172.580;2023-08-17T08:16:12;101253.13;;;7.72;69.74
68855;BME280;69984;-43.570;172.580;2023-08-17T08:18:39;101257.69;;;7.57;70.43
68855;BME280;69984;-43.570;172.580;2023-08-17T08:21:06;101254.41;;;8.01;69.29
68855;BME280;69984;-43.570;172.580;2023-08-17T08:23:33;101250.47;;;7.95;69.46
68855;BME280;69984;-43.570;172.580;2023-08-17T08:26:00;101248.66;;;7.85;69.96
68855;BME280;69984;-43.570;172.580;2023-08-17T08:28:27;101245.69;;;7.78;69.42
68855;BME280;69984;-43.570;172.580;2023-08-17T08:30:54;101250.97;;;7.66;69.72
68855;BME280;69984;-43.570;172.580;2023-08-17T08:33:21;101254.16;;;7.58;70.84
68855;BME280;69984;-43.570;172.580;2023-08-17T08:35:48;101263.34;;;7.75;69.14
68855;BME280;69984;-43.570;172.580;2023-08-17T08:38:16;101267.81;;;7.62;69.59
68855;BME280;69984;-43.570;172.580;2023-08-17T08:40:44;101267.75;;;7.50;70.05
68855;BME280;69984;-43.570;172.580;2023-08-17T08:43:14;101260.69;;;7.40;70.24
68855;BME280;69984;-43.570;172.580;2023-08-17T08:45:44;101267.25;;;7.45;68.67
68855;BME280;69984;-43.570;172.580;2023-08-17T08:48:12;101266.44;;;7.45;68.49
68855;BME280;69984;-43.570;172.580;2023-08-17T08:50:41;101267.63;;;7.28;69.10
68855;BME280;69984;-43.570;172.580;2023-08-17T08:53:14;101267.47;;;7.42;68.20
68855;BME280;69984;-43.570;172.580;2023-08-17T08:55:55;101280.72;;;7.39;68.38
68855;BME280;69984;-43.570;172.580;2023-08-17T08:58:25;101282.06;;;7.21;71.27
68855;BME280;69984;-43.570;172.580;2023-08-17T09:00:53;101275.09;;;7.09;71.79
68855;BME280;69984;-43.570;172.580;2023-08-17T09:03:21;101284.16;;;7.40;71.98
68855;BME280;69984;-43.570;172.580;2023-08-17T09:05:49;101287.06;;;7.24;73.20
68855;BME280;69984;-43.570;172.580;2023-08-17T09:08:22;101290.84;;;7.08;74.68
68855;BME280;69984;-43.570;172.580;2023-08-17T09:10:50;101288.56;;;7.39;75.46
68855;BME280;69984;-43.570;172.580;2023-08-17T09:13:17;101291.44;;;7.47;75.50
68855;BME280;69984;-43.570;172.580;2023-08-17T09:15:44;101288.66;;;7.62;75.19
68855;BME280;69984;-43.570;172.580;2023-08-17T09:18:12;101296.59;;;7.36;75.92
68855;BME280;69984;-43.570;172.580;2023-08-17T09:23:14;101298.09;;;7.28;76.32
68855;BME280;69984;-43.570;172.580;2023-08-17T09:25:44;101293.50;;;7.31;75.79
68855;BME280;69984;-43.570;172.580;2023-08-17T09:28:13;101290.47;;;7.25;75.78
68855;BME280;69984;-43.570;172.580;2023-08-17T09:30:59;101295.09;;;7.21;76.15
68855;BME280;69984;-43.570;172.580;2023-08-17T09:33:29;101301.47;;;7.17;76.88
68855;BME280;69984;-43.570;172.580;2023-08-17T09:35:57;101291.69;;;7.44;75.21
68855;BME280;69984;-43.570;172.580;2023-08-17T09:38:26;101298.50;;;7.34;74.64
68855;BME280;69984;-43.570;172.580;2023-08-17T09:40:53;101293.66;;;7.41;73.50
68855;BME280;69984;-43.570;172.580;2023-08-17T09:43:20;101300.50;;;7.18;74.06
68855;BME280;69984;-43.570;172.580;2023-08-17T09:45:48;101299.34;;;7.22;73.49
68855;BME280;69984;-43.570;172.580;2023-08-17T09:48:19;101296.75;;;7.22;71.91
68855;BME280;69984;-43.570;172.580;2023-08-17T09:50:47;101300.03;;;7.00;72.55
68855;BME280;69984;-43.570;172.580;2023-08-17T09:53:16;101293.53;;;6.70;73.94
68855;BME280;69984;-43.570;172.580;2023-08-17T09:55:46;101303.94;;;6.82;74.13
68855;BME280;69984;-43.570;172.580;2023-08-17T09:58:14;101293.44;;;6.71;72.11
68855;BME280;69984;-43.570;172.580;2023-08-17T10:00:46;101300.22;;;6.61;73.11
68855;BME280;69984;-43.570;172.580;2023-08-17T10:03:16;101297.72;;;6.47;73.45
68855;BME280;69984;-43.570;172.580;2023-08-17T10:05:58;101295.63;;;6.39;74.31
68855;BME280;69984;-43.570;172.580;2023-08-17T10:08:29;101289.47;;;6.40;74.12
68855;BME280;69984;-43.570;172.580;2023-08-17T10:10:57;101292.47;;;6.09;76.11
68855;BME280;69984;-43.570;172.580;2023-08-17T10:13:54;101285.91;;;6.03;76.54
68855;BME280;69984;-43.570;172.580;2023-08-17T10:16:40;101283.84;;;6.34;76.72
68855;BME280;69984;-43.570;172.580;2023-08-17T10:19:22;101284.34;;;6.14;78.89
68855;BME280;69984;-43.570;172.580;2023-08-17T10:24:34;101287.19;;;6.36;78.11
68855;BME280;69984;-43.570;172.580;2023-08-17T10:27:04;101285.09;;;6.41;77.34
68855;BME280;69984;-43.570;172.580;2023-08-17T10:29:33;101283.22;;;6.30;78.64
68855;BME280;69984;-43.570;172.580;2023-08-17T10:32:03;101277.19;;;6.30;79.32
68855;BME280;69984;-43.570;172.580;2023-08-17T10:34:30;101284.50;;;6.50;78.73
68855;BME280;69984;-43.570;172.580;2023-08-17T10:36:58;101279.16;;;6.51;79.28
68855;BME280;69984;-43.570;172.580;2023-08-17T10:39:29;101281.66;;;6.66;78.57
68855;BME280;69984;-43.570;172.580;2023-08-17T10:41:58;101277.38;;;6.52;79.83
68855;BME280;69984;-43.570;172.580;2023-08-17T10:44:42;101275.72;;;6.51;78.47
68855;BME280;69984;-43.570;172.580;2023-08-17T10:47:22;101278.13;;;6.41;78.79
68855;BME280;69984;-43.570;172.580;2023-08-17T10:50:05;101272.41;;;6.36;78.62
68855;BME280;69984;-43.570;172.580;2023-08-17T10:52:34;101274.66;;;6.66;78.54
68855;BME280;69984;-43.570;172.580;2023-08-17T10:55:07;101274.28;;;6.34;77.94
68855;BME280;69984;-43.570;172.580;2023-08-17T11:00:20;101272.19;;;6.27;77.32
68855;BME280;69984;-43.570;172.580;2023-08-17T11:03:08;101279.59;;;6.33;77.01
68855;BME280;69984;-43.570;172.580;2023-08-17T11:05:43;101280.22;;;6.36;77.17
68855;BME280;69984;-43.570;172.580;2023-08-17T11:13:28;101283.13;;;6.19;78.52
68855;BME280;69984;-43.570;172.580;2023-08-17T11:15:58;101286.25;;;6.24;78.99
68855;BME280;69984;-43.570;172.580;2023-08-17T11:18:26;101288.34;;;6.32;77.68
68855;BME280;69984;-43.570;172.580;2023-08-17T11:20:54;101282.38;;;6.30;78.51
68855;BME280;69984;-43.570;172.580;2023-08-17T11:23:23;101284.19;;;6.29;79.54
68855;BME280;69984;-43.570;172.580;2023-08-17T11:25:53;101290.09;;;6.44;78.33
68855;BME280;69984;-43.570;172.580;2023-08-17T11:28:20;101299.38;;;6.35;78.74
68855;BME280;69984;-43.570;172.580;2023-08-17T11:30:57;101287.81;;;6.39;78.77
68855;BME280;69984;-43.570;172.580;2023-08-17T11:33:29;101290.00;;;6.45;78.38
68855;BME280;69984;-43.570;172.580;2023-08-17T11:35:57;101290.50;;;6.38;78.46
68855;BME280;69984;-43.570;172.580;2023-08-17T11:38:45;101295.81;;;6.24;79.92
68855;BME280;69984;-43.570;172.580;2023-08-17T11:41:13;101288.22;;;6.59;79.82
68855;BME280;69984;-43.570;172.580;2023-08-17T11:43:42;101293.63;;;6.56;79.31
68855;BME280;69984;-43.570;172.580;2023-08-17T11:46:11;101290.50;;;6.63;78.44
68855;BME280;69984;-43.570;172.580;2023-08-17T11:48:38;101290.22;;;6.68;78.23
68855;BME280;69984;-43.570;172.580;2023-08-17T11:51:05;101294.03;;;6.62;78.46
68855;BME280;69984;-43.570;172.580;2023-08-17T11:53:36;101293.56;;;6.57;78.58
68855;BME280;69984;-43.570;172.580;2023-08-17T11:56:05;101289.47;;;6.53;79.90
68855;BME280;69984;-43.570;172.580;2023-08-17T11:58:46;101301.56;;;6.67;78.73
68855;BME280;69984;-43.570;172.580;2023-08-17T12:01:13;101292.47;;;6.72;78.53
68855;BME280;69984;-43.570;172.580;2023-08-17T12:03:44;101295.41;;;6.68;78.40
68855;BME280;69984;-43.570;172.580;2023-08-17T12:06:11;101288.72;;;6.51;79.14
68855;BME280;69984;-43.570;172.580;2023-08-17T12:08:45;101291.75;;;6.45;79.87
68855;BME280;69984;-43.570;172.580;2023-08-17T12:11:13;101284.91;;;6.57;80.27
68855;BME280;69984;-43.570;172.580;2023-08-17T12:13:40;101290.22;;;6.68;80.45
68855;BME280;69984;-43.570;172.580;2023-08-17T12:16:14;101293.63;;;6.56;80.21
68855;BME280;69984;-43.570;172.580;2023-08-17T12:18:45;101293.75;;;6.67;79.71
68855;BME280;69984;-43.570;172.580;2023-08-17T12:21:12;101289.47;;;6.66;78.61
68855;BME280;69984;-43.570;172.580;2023-08-17T12:23:39;101280.28;;;6.73;77.73
68855;BME280;69984;-43.570;172.580;2023-08-17T12:26:06;101277.91;;;6.70;78.09
68855;BME280;69984;-43.570;172.580;2023-08-17T12:28:33;101280.19;;;6.62;77.31
68855;BME280;69984;-43.570;172.580;2023-08-17T12:31:02;101282.28;;;6.57;78.93
68855;BME280;69984;-43.570;172.580;2023-08-17T12:33:29;101280.94;;;6.51;78.96
68855;BME280;69984;-43.570;172.580;2023-08-17T12:35:56;101278.53;;;6.61;79.10
68855;BME280;69984;-43.570;172.580;2023-08-17T12:38:24;101277.91;;;6.70;78.46
68855;BME280;69984;-43.570;172.580;2023-08-17T12:40:52;101268.63;;;6.40;79.33
68855;BME280;69984;-43.570;172.580;2023-08-17T12:43:19;101268.84;;;6.63;79.61
68855;BME280;69984;-43.570;172.580;2023-08-17T12:45:46;101269.50;;;6.53;80.71
68855;BME280;69984;-43.570;172.580;2023-08-17T12:48:13;101272.81;;;6.56;80.69
68855;BME280;69984;-43.570;172.580;2023-08-17T12:50:40;101268.13;;;6.61;80.70